createdAt,value
2018-08-11T00:00:55.147Z,51.40
2018-08-11T00:03:26.960Z,51.50
2018-08-11T00:05:57.671Z,51.50
2018-08-11T00:08:28.631Z,51.50
2018-08-11T00:10:59.374Z,51.40
2018-08-11T00:13:30.379Z,51.60
2018-08-11T00:16:01.035Z,51.60
2018-08-11T00:18:31.718Z,51.60
2018-08-11T00:21:02.152Z,51.60
2018-08-11T00:23:32.951Z,51.90
2018-08-11T00:26:03.371Z,51.60
2018-08-11T00:28:34.552Z,51.70
2018-08-11T00:31:05.591Z,51.80
2018-08-11T00:33:36.232Z,51.80
2018-08-11T00:36:06.723Z,51.80
2018-08-11T00:38:37.424Z,51.90
2018-08-11T00:41:08.566Z,51.90
2018-08-11T00:43:39.506Z,51.90
2018-08-11T00:46:10.188Z,52.00
2018-08-11T00:48:40.649Z,52.10
2018-08-11T00:51:11.585Z,51.80
2018-08-11T00:53:42.268Z,52.20
2018-08-11T00:56:12.695Z,52.20
2018-08-11T00:58:43.353Z,52.20
2018-08-11T01:01:14.039Z,52.20
2018-08-11T01:03:44.685Z,52.40
2018-08-11T01:06:16.167Z,52.60
2018-08-11T01:08:46.806Z,52.40
2018-08-11T01:11:17.251Z,52.30
2018-08-11T01:13:48.204Z,52.40
2018-08-11T01:16:18.644Z,52.40
2018-08-11T01:18:49.283Z,52.60
2018-08-11T01:21:21.007Z,52.70
2018-08-11T01:23:51.999Z,52.90
2018-08-11T01:26:22.747Z,52.80
2018-08-11T01:28:53.452Z,52.80
2018-08-11T01:31:24.125Z,53.10
2018-08-11T01:33:55.116Z,52.90
2018-08-11T01:36:26.179Z,52.90
2018-08-11T01:38:56.810Z,52.80
2018-08-11T01:41:27.486Z,52.90
2018-08-11T01:43:58.153Z,53.10
2018-08-11T01:46:28.814Z,53.10
2018-08-11T01:48:59.987Z,53.00
2018-08-11T01:51:31.027Z,52.90
2018-08-11T01:54:01.665Z,53.10
2018-08-11T01:56:32.612Z,53.30
2018-08-11T01:59:03.776Z,53.50
2018-08-11T02:01:34.535Z,53.60
2018-08-11T02:04:04.912Z,53.70
2018-08-11T02:06:38.868Z,53.70
2018-08-11T02:09:10.400Z,53.10
2018-08-11T02:11:41.058Z,53.10
2018-08-11T02:14:12.756Z,53.20
2018-08-11T02:16:43.749Z,53.20
2018-08-11T02:19:15.678Z,53.30
2018-08-11T02:21:46.661Z,53.20
2018-08-11T02:24:17.860Z,53.30
2018-08-11T02:26:48.807Z,53.50
2018-08-11T02:29:19.183Z,53.40
2018-08-11T02:31:49.933Z,53.70
2018-08-11T02:34:21.359Z,53.80
2018-08-11T02:36:52.759Z,54.10
2018-08-11T02:39:23.385Z,54.10
2018-08-11T02:41:54.588Z,54.00
2018-08-11T02:44:25.257Z,54.10
2018-08-11T02:46:55.677Z,54.10
2018-08-11T02:49:26.346Z,54.10
2018-08-11T02:51:57.264Z,54.40
2018-08-11T02:54:27.664Z,54.40
2018-08-11T02:56:58.676Z,55.00
2018-08-11T02:59:29.074Z,54.70
2018-08-11T03:01:59.464Z,54.90
2018-08-11T03:04:30.365Z,55.00
2018-08-11T03:07:00.756Z,54.60
2018-08-11T03:09:31.465Z,54.60
2018-08-11T03:12:01.896Z,54.60
2018-08-11T03:14:32.576Z,54.60
2018-08-11T03:17:03.312Z,54.60
2018-08-11T03:19:34.232Z,54.80
2018-08-11T03:22:04.921Z,54.80
2018-08-11T03:24:35.860Z,54.80
2018-08-11T03:27:06.866Z,55.00
2018-08-11T03:29:37.584Z,55.00
2018-08-11T03:32:08.480Z,55.30
2018-08-11T03:34:41.128Z,55.30
2018-08-11T03:37:12.139Z,55.30
2018-08-11T03:39:43.147Z,55.30
2018-08-11T03:42:13.808Z,55.20
2018-08-11T03:44:44.231Z,55.20
2018-08-11T03:47:15.272Z,55.00
2018-08-11T03:49:45.944Z,55.20
2018-08-11T03:52:16.356Z,55.20
2018-08-11T03:54:46.833Z,55.10
2018-08-11T03:57:18.104Z,55.30
2018-08-11T03:59:48.756Z,55.30
2018-08-11T04:02:20.024Z,55.30
2018-08-11T04:04:50.649Z,55.40
2018-08-11T04:07:21.543Z,55.40
2018-08-11T04:09:52.207Z,55.50
2018-08-11T04:12:22.591Z,55.50
2018-08-11T04:14:52.972Z,55.40
2018-08-11T04:17:32.041Z,55.40
2018-08-11T04:20:02.635Z,55.50
2018-08-11T04:22:33.387Z,55.60
2018-08-11T04:25:04.648Z,55.80
2018-08-11T04:27:36.100Z,56.10
2018-08-11T04:30:09.031Z,56.20
2018-08-11T04:32:39.491Z,56.20
2018-08-11T04:35:10.700Z,56.20
2018-08-11T04:37:41.120Z,56.20
2018-08-11T04:40:11.731Z,56.20
2018-08-11T04:42:42.389Z,56.40
2018-08-11T04:45:13.796Z,56.40
2018-08-11T04:47:44.542Z,56.60
2018-08-11T04:50:14.923Z,56.60
2018-08-11T04:52:46.400Z,56.70
2018-08-11T04:55:17.441Z,57.00
2018-08-11T04:57:48.072Z,57.10
2018-08-11T05:00:18.705Z,57.20
2018-08-11T05:02:50.055Z,57.30
2018-08-11T05:05:20.988Z,57.00
2018-08-11T05:07:51.630Z,56.90
2018-08-11T05:10:22.264Z,56.90
2018-08-11T05:12:53.985Z,56.90
2018-08-11T05:15:24.667Z,56.80
2018-08-11T05:17:55.377Z,56.90
2018-08-11T05:20:25.994Z,57.10
2018-08-11T05:22:56.648Z,57.10
2018-08-11T05:25:27.502Z,57.20
2018-08-11T05:27:58.159Z,57.20
2018-08-11T05:30:29.163Z,57.00
2018-08-11T05:33:00.131Z,57.00
2018-08-11T05:35:31.008Z,56.60
2018-08-11T05:38:02.228Z,56.70
2018-08-11T05:40:32.590Z,56.60
2018-08-11T05:43:03.307Z,56.70
2018-08-11T05:45:34.254Z,56.70
2018-08-11T05:48:04.718Z,56.80
2018-08-11T05:50:35.445Z,56.60
2018-08-11T05:53:06.443Z,56.80
2018-08-11T05:55:36.807Z,56.90
2018-08-11T05:58:07.496Z,57.00
2018-08-11T06:00:37.868Z,56.90
2018-08-11T06:03:08.732Z,56.90
2018-08-11T06:05:39.736Z,56.10
2018-08-11T06:08:10.135Z,56.00
2018-08-11T06:10:40.772Z,55.90
2018-08-11T06:13:11.485Z,56.10
2018-08-11T06:15:42.622Z,55.60
2018-08-11T06:18:13.268Z,55.40
2018-08-11T06:20:44.132Z,54.70
2018-08-11T06:23:14.820Z,54.70
2018-08-11T06:25:45.186Z,54.60
2018-08-11T06:28:16.157Z,53.30
2018-08-11T06:30:47.124Z,53.10
2018-08-11T06:33:18.368Z,52.20
2018-08-11T06:35:48.738Z,51.90
2018-08-11T06:38:19.139Z,52.20
2018-08-11T06:40:49.640Z,51.30
2018-08-11T06:43:21.091Z,51.00
2018-08-11T06:45:52.580Z,50.50
2018-08-11T06:48:28.499Z,50.50
2018-08-11T06:50:59.612Z,50.50
2018-08-11T06:53:30.360Z,50.30
2018-08-11T06:56:01.922Z,50.50
2018-08-11T06:58:32.928Z,50.10
2018-08-11T07:01:03.636Z,49.60
2018-08-11T07:03:34.603Z,49.40
2018-08-11T07:06:05.481Z,49.40
2018-08-11T07:08:41.835Z,49.50
2018-08-11T07:11:12.875Z,49.40
2018-08-11T07:13:43.662Z,49.60
2018-08-11T07:16:15.252Z,49.60
2018-08-11T07:18:46.418Z,49.30
2018-08-11T07:21:17.447Z,49.20
2018-08-11T07:23:48.444Z,49.20
2018-08-11T07:26:19.346Z,49.30
2018-08-11T07:28:50.160Z,49.40
2018-08-11T07:31:28.151Z,49.20
2018-08-11T07:33:58.866Z,49.10
2018-08-11T07:36:29.349Z,49.00
2018-08-11T07:39:00.216Z,48.80
2018-08-11T07:41:31.783Z,48.90
2018-08-11T07:44:02.210Z,49.20
2018-08-11T07:46:32.824Z,49.20
2018-08-11T07:49:03.236Z,49.00
2018-08-11T07:51:33.888Z,49.00
2018-08-11T07:54:05.052Z,49.10
2018-08-11T07:56:35.996Z,48.80
2018-08-11T07:59:06.928Z,48.80
2018-08-11T08:01:37.351Z,48.80
2018-08-11T08:04:08.348Z,48.70
2018-08-11T08:06:39.512Z,48.70
2018-08-11T08:09:12.395Z,48.80
2018-08-11T08:11:43.617Z,48.70
2018-08-11T08:14:14.614Z,48.60
2018-08-11T08:16:46.052Z,48.50
2018-08-11T08:19:16.692Z,48.30
2018-08-11T08:21:47.064Z,48.20
2018-08-11T08:24:18.043Z,47.70
2018-08-11T08:26:49.610Z,48.00
2018-08-11T08:29:21.251Z,47.80
2018-08-11T08:31:51.628Z,47.60
2018-08-11T08:34:22.016Z,47.80
2018-08-11T08:36:52.706Z,47.80
2018-08-11T08:39:23.738Z,47.60
2018-08-11T08:41:54.720Z,47.50
2018-08-11T08:44:25.784Z,47.60
2018-08-11T08:46:56.788Z,47.90
2018-08-11T08:49:27.803Z,48.00
2018-08-11T08:51:58.473Z,47.80
2018-08-11T08:54:29.499Z,47.60
2018-08-11T08:57:00.168Z,47.20
2018-08-11T08:59:30.823Z,47.80
2018-08-11T09:02:01.997Z,48.50
2018-08-11T09:04:33.250Z,48.90
2018-08-11T09:07:05.711Z,49.10
2018-08-11T09:09:37.272Z,48.60
2018-08-11T09:12:09.065Z,47.50
2018-08-11T09:14:40.050Z,46.30
2018-08-11T09:17:11.335Z,43.20
2018-08-11T09:19:43.073Z,41.40
2018-08-11T09:22:14.568Z,41.10
2018-08-11T09:24:45.771Z,40.60
2018-08-11T09:27:16.915Z,39.80
2018-08-11T09:29:47.902Z,39.30
2018-08-11T09:32:18.288Z,39.50
2018-08-11T09:34:49.509Z,39.50
2018-08-11T09:37:20.248Z,39.50
2018-08-11T09:39:51.288Z,39.50
2018-08-11T09:42:21.664Z,39.70
2018-08-11T09:44:52.725Z,39.80
2018-08-11T09:47:23.417Z,40.70
2018-08-11T09:49:54.653Z,40.20
2018-08-11T09:52:25.409Z,40.60
2018-08-11T09:54:56.092Z,40.70
2018-08-11T09:57:27.284Z,40.70
2018-08-11T09:59:57.951Z,40.50
2018-08-11T10:02:28.416Z,40.40
2018-08-11T10:04:59.131Z,40.30
2018-08-11T10:07:29.515Z,40.50
2018-08-11T10:10:00.280Z,40.20
2018-08-11T10:12:31.686Z,40.20
2018-08-11T10:15:02.084Z,40.00
2018-08-11T10:17:33.302Z,39.80
2018-08-11T10:20:04.284Z,39.90
2018-08-11T10:22:34.914Z,39.40
2018-08-11T10:25:05.619Z,39.80
2018-08-11T10:27:36.373Z,39.70
2018-08-11T10:30:08.663Z,40.00
2018-08-11T10:32:39.044Z,39.80
2018-08-11T10:35:09.683Z,39.40
2018-08-11T10:37:40.519Z,39.50
2018-08-11T10:40:10.971Z,39.50
2018-08-11T10:42:41.899Z,39.40
2018-08-11T10:45:12.363Z,39.20
2018-08-11T10:47:43.049Z,38.80
2018-08-11T10:50:13.997Z,38.10
2018-08-11T10:52:45.705Z,38.00
2018-08-11T10:55:16.383Z,37.60
2018-08-11T10:57:48.117Z,37.60
2018-08-11T11:00:19.611Z,37.20
2018-08-11T11:02:51.120Z,36.90
2018-08-11T11:05:23.260Z,36.90
2018-08-11T11:07:55.048Z,37.00
2018-08-11T11:10:25.955Z,35.70
2018-08-11T11:12:57.236Z,35.90
2018-08-11T11:15:27.872Z,36.20
2018-08-11T11:17:59.475Z,35.80
2018-08-11T11:20:30.394Z,35.80
2018-08-11T11:23:01.334Z,36.20
2018-08-11T11:25:31.708Z,35.90
2018-08-11T11:28:02.656Z,35.90
2018-08-11T11:30:33.292Z,36.40
2018-08-11T11:33:03.936Z,36.20
2018-08-11T11:35:35.139Z,35.70
2018-08-11T11:38:05.855Z,35.00
2018-08-11T11:40:36.485Z,35.00
2018-08-11T11:43:07.937Z,35.10
2018-08-11T11:45:38.972Z,34.60
2018-08-11T11:48:09.930Z,34.30
2018-08-11T11:50:40.645Z,34.50
2018-08-11T11:53:11.053Z,34.80
2018-08-11T11:55:41.744Z,34.60
2018-08-11T11:58:12.536Z,34.60
2018-08-11T12:00:44.165Z,34.20
2018-08-11T12:03:15.590Z,34.10
2018-08-11T12:05:46.012Z,34.10
2018-08-11T12:08:16.565Z,33.80
2018-08-11T12:10:46.960Z,33.50
2018-08-11T12:13:17.356Z,33.90
2018-08-11T12:15:49.100Z,34.20
2018-08-11T12:18:19.753Z,34.30
2018-08-11T12:20:50.117Z,34.40
2018-08-11T12:23:21.045Z,34.70
2018-08-11T12:25:51.452Z,34.80
2018-08-11T12:28:22.151Z,35.00
2018-08-11T12:30:53.568Z,35.00
2018-08-11T12:33:24.272Z,35.00
2018-08-11T12:35:54.981Z,34.60
2018-08-11T12:38:25.915Z,34.50
2018-08-11T12:40:56.836Z,34.60
2018-08-11T12:43:28.297Z,34.90
2018-08-11T12:46:00.926Z,34.90
2018-08-11T12:48:32.359Z,35.10
2018-08-11T12:51:03.051Z,34.90
2018-08-11T12:53:33.784Z,34.80
2018-08-11T12:56:04.995Z,34.80
2018-08-11T12:58:36.275Z,34.70
2018-08-11T13:01:07.108Z,34.10
2018-08-11T13:03:38.029Z,34.30
2018-08-11T13:06:09.522Z,33.30
2018-08-11T13:08:40.215Z,33.80
2018-08-11T13:11:11.195Z,33.90
2018-08-11T13:13:41.889Z,33.80
2018-08-11T13:16:12.663Z,34.00
2018-08-11T13:18:43.724Z,33.80
2018-08-11T13:21:14.772Z,34.10
2018-08-11T13:23:45.440Z,34.30
2018-08-11T13:26:16.108Z,34.10
2018-08-11T13:28:47.282Z,34.00
2018-08-11T13:31:18.196Z,33.80
2018-08-11T13:33:49.200Z,33.70
2018-08-11T13:36:20.130Z,33.80
2018-08-11T13:38:50.536Z,33.60
2018-08-11T13:41:21.488Z,34.00
2018-08-11T13:43:52.193Z,33.30
2018-08-11T13:46:23.099Z,33.20
2018-08-11T13:48:54.057Z,33.70
2018-08-11T13:51:24.763Z,33.50
2018-08-11T13:53:55.185Z,32.60
2018-08-11T13:56:25.779Z,32.20
2018-08-11T13:58:56.764Z,31.70
2018-08-11T14:01:27.661Z,32.00
2018-08-11T14:03:58.791Z,31.90
2018-08-11T14:06:36.823Z,32.20
2018-08-11T14:09:09.137Z,32.20
2018-08-11T14:11:39.877Z,32.00
2018-08-11T14:14:10.527Z,31.70
2018-08-11T14:16:41.456Z,31.80
2018-08-11T14:19:12.195Z,32.00
2018-08-11T14:21:42.844Z,31.80
2018-08-11T14:24:13.534Z,32.20
2018-08-11T14:26:44.417Z,31.40
2018-08-11T14:29:15.943Z,32.50
2018-08-11T14:31:47.036Z,31.90
2018-08-11T14:34:17.689Z,32.10
2018-08-11T14:36:48.082Z,31.00
2018-08-11T14:39:18.543Z,31.20
2018-08-11T14:41:49.211Z,31.40
2018-08-11T14:44:20.654Z,31.00
2018-08-11T14:46:51.267Z,31.10
2018-08-11T14:49:22.215Z,31.10
2018-08-11T14:51:52.863Z,31.00
2018-08-11T14:54:23.948Z,30.60
2018-08-11T14:56:54.340Z,31.50
2018-08-11T14:59:25.007Z,30.60
2018-08-11T15:01:55.406Z,31.10
2018-08-11T15:04:26.377Z,31.10
2018-08-11T15:06:57.296Z,30.80
2018-08-11T15:09:28.285Z,30.60
2018-08-11T15:11:59.492Z,30.80
2018-08-11T15:14:30.402Z,30.10
2018-08-11T15:17:01.027Z,29.90
2018-08-11T15:19:31.731Z,30.80
2018-08-11T15:22:02.969Z,30.50
2018-08-11T15:24:33.672Z,30.60
2018-08-11T15:27:04.615Z,30.00
2018-08-11T15:29:36.236Z,30.00
2018-08-11T15:32:07.145Z,30.20
2018-08-11T15:34:38.065Z,30.10
2018-08-11T15:37:09.006Z,30.40
2018-08-11T15:39:39.731Z,30.50
2018-08-11T15:42:10.224Z,30.20
2018-08-11T15:44:42.624Z,29.90
2018-08-11T15:47:14.080Z,30.00
2018-08-11T15:49:46.423Z,30.50
2018-08-11T15:52:16.836Z,30.00
2018-08-11T15:54:47.824Z,30.00
2018-08-11T15:57:19.200Z,30.00
2018-08-11T15:59:51.208Z,30.10
2018-08-11T16:02:21.859Z,29.90
2018-08-11T16:04:52.498Z,30.10
2018-08-11T16:07:23.835Z,29.80
2018-08-11T16:09:54.539Z,30.00
2018-08-11T16:12:24.929Z,30.00
2018-08-11T16:14:55.825Z,30.00
2018-08-11T16:17:26.512Z,29.90
2018-08-11T16:19:57.808Z,29.90
2018-08-11T16:22:28.742Z,29.80
2018-08-11T16:24:59.660Z,29.90
2018-08-11T16:27:30.561Z,30.00
2018-08-11T16:30:01.621Z,29.90
2018-08-11T16:32:32.731Z,29.70
2018-08-11T16:35:03.307Z,29.80
2018-08-11T16:37:33.931Z,29.70
2018-08-11T16:40:05.090Z,29.50
2018-08-11T16:42:36.287Z,29.50
2018-08-11T16:45:06.803Z,29.70
2018-08-11T16:47:37.450Z,29.60
2018-08-11T16:50:08.441Z,29.60
2018-08-11T16:52:39.727Z,29.70
2018-08-11T16:55:10.140Z,29.70
2018-08-11T16:57:40.528Z,29.60
2018-08-11T17:00:13.460Z,29.40
2018-08-11T17:02:44.817Z,29.50
2018-08-11T17:05:15.500Z,29.50
2018-08-11T17:07:46.160Z,29.60
2018-08-11T17:10:16.918Z,29.50
2018-08-11T17:12:47.568Z,29.60
2018-08-11T17:15:18.325Z,29.70
2018-08-11T17:17:49.265Z,29.60
2018-08-11T17:20:20.332Z,29.60
2018-08-11T17:22:51.348Z,29.80
2018-08-11T17:25:22.341Z,29.90
2018-08-11T17:27:53.524Z,29.80
2018-08-11T17:30:23.931Z,29.90
2018-08-11T17:32:54.836Z,30.70
2018-08-11T17:35:25.529Z,30.00
2018-08-11T17:37:56.248Z,29.80
2018-08-11T17:40:27.145Z,29.50
2018-08-11T17:42:58.226Z,29.50
2018-08-11T17:45:28.992Z,29.50
2018-08-11T17:47:59.378Z,29.70
2018-08-11T17:50:30.260Z,29.60
2018-08-11T17:53:01.341Z,29.70
2018-08-11T17:55:32.026Z,29.90
2018-08-11T17:58:03.501Z,29.50
2018-08-11T18:00:34.571Z,30.00
2018-08-11T18:03:07.324Z,31.00
2018-08-11T18:05:39.616Z,31.50
2018-08-11T18:08:10.280Z,35.80
2018-08-11T18:10:41.006Z,38.80
2018-08-11T18:13:11.528Z,37.60
2018-08-11T18:15:42.201Z,36.40
2018-08-11T18:18:12.781Z,35.30
2018-08-11T18:20:43.625Z,35.00
2018-08-11T18:23:14.327Z,34.40
2018-08-11T18:25:45.025Z,34.40
2018-08-11T18:28:16.287Z,33.90
2018-08-11T18:30:46.670Z,34.90
2018-08-11T18:33:22.159Z,34.30
2018-08-11T18:35:52.795Z,34.00
2018-08-11T18:38:23.967Z,34.20
2018-08-11T18:40:54.598Z,34.80
2018-08-11T18:43:25.714Z,34.60
2018-08-11T18:45:56.779Z,34.90
2018-08-11T18:48:27.189Z,34.60
2018-08-11T18:50:57.835Z,36.00
2018-08-11T18:53:28.828Z,36.60
2018-08-11T18:55:59.538Z,36.90
2018-08-11T18:58:29.972Z,36.30
2018-08-11T19:01:01.265Z,36.20
2018-08-11T19:03:32.488Z,37.10
2018-08-11T19:06:02.874Z,37.60
2018-08-11T19:08:33.296Z,37.60
2018-08-11T19:11:04.045Z,38.40
2018-08-11T19:13:34.693Z,38.00
2018-08-11T19:16:05.671Z,38.50
2018-08-11T19:18:36.100Z,38.50
2018-08-11T19:21:07.344Z,38.80
2018-08-11T19:23:38.072Z,39.70
2018-08-11T19:26:09.018Z,40.10
2018-08-11T19:28:39.416Z,39.40
2018-08-11T19:31:10.623Z,39.60
2018-08-11T19:33:41.795Z,39.30
2018-08-11T19:36:12.189Z,39.70
2018-08-11T19:38:46.693Z,40.20
2018-08-11T19:41:17.917Z,40.70
2018-08-11T19:43:48.591Z,39.80
2018-08-11T19:46:19.282Z,39.40
2018-08-11T19:48:49.965Z,40.50
2018-08-11T19:51:20.960Z,40.50
2018-08-11T19:53:51.411Z,41.30
2018-08-11T19:56:22.412Z,41.50
2018-08-11T19:58:53.315Z,41.80
2018-08-11T20:01:23.722Z,42.30
2018-08-11T20:03:54.423Z,41.70
2018-08-11T20:06:25.120Z,42.30
2018-08-11T20:08:55.942Z,41.00
2018-08-11T20:11:26.914Z,42.00
2018-08-11T20:13:57.635Z,41.80
2018-08-11T20:16:28.054Z,41.70
2018-08-11T20:18:58.523Z,42.40
2018-08-11T20:21:29.431Z,42.10
2018-08-11T20:24:00.472Z,41.80
2018-08-11T20:26:31.409Z,42.60
2018-08-11T20:29:02.068Z,42.70
2018-08-11T20:31:32.545Z,42.30
2018-08-11T20:34:02.967Z,42.50
2018-08-11T20:36:33.931Z,42.60
2018-08-11T20:39:08.685Z,42.80
2018-08-11T20:41:39.599Z,42.70
2018-08-11T20:44:10.555Z,43.50
2018-08-11T20:46:40.968Z,42.40
2018-08-11T20:49:11.655Z,43.60
2018-08-11T20:51:42.402Z,43.00
2018-08-11T20:54:13.186Z,43.80
2018-08-11T20:56:44.136Z,43.70
2018-08-11T20:59:14.833Z,43.90
2018-08-11T21:01:45.564Z,44.30
2018-08-11T21:04:16.162Z,44.20
2018-08-11T21:06:47.491Z,45.10
2018-08-11T21:09:19.477Z,45.10
2018-08-11T21:11:50.699Z,45.30
2018-08-11T21:14:21.344Z,45.20
2018-08-11T21:16:52.003Z,45.90
2018-08-11T21:19:22.400Z,45.70
2018-08-11T21:21:53.056Z,45.40
2018-08-11T21:24:23.747Z,45.70
2018-08-11T21:26:54.624Z,46.20
2018-08-11T21:29:25.120Z,46.20
2018-08-11T21:31:55.815Z,46.30
2018-08-11T21:34:27.295Z,46.60
2018-08-11T21:36:57.961Z,46.10
2018-08-11T21:39:29.069Z,46.90
2018-08-11T21:41:59.938Z,46.90
2018-08-11T21:44:31.074Z,47.00
2018-08-11T21:47:02.328Z,47.20
2018-08-11T21:49:32.740Z,47.30
2018-08-11T21:52:03.728Z,47.30
2018-08-11T21:54:34.420Z,47.20
2018-08-11T21:57:04.827Z,47.20
2018-08-11T21:59:35.729Z,47.30
2018-08-11T22:02:06.696Z,47.30
2018-08-11T22:04:37.432Z,47.60
2018-08-11T22:07:08.528Z,47.40
2018-08-11T22:09:39.539Z,47.20
2018-08-11T22:12:10.445Z,47.40
2018-08-11T22:14:41.857Z,47.50
2018-08-11T22:17:13.163Z,47.90
2018-08-11T22:19:43.896Z,48.70
2018-08-11T22:22:14.625Z,48.50
2018-08-11T22:24:45.567Z,48.40
2018-08-11T22:27:16.565Z,48.60
2018-08-11T22:29:47.017Z,49.00
2018-08-11T22:32:17.643Z,48.80
2018-08-11T22:34:48.236Z,48.70
2018-08-11T22:37:19.356Z,48.80
2018-08-11T22:39:49.768Z,49.30
2018-08-11T22:42:20.403Z,48.90
2018-08-11T22:44:50.803Z,48.80
2018-08-11T22:47:21.223Z,49.90
2018-08-11T22:49:52.392Z,48.80
2018-08-11T22:52:23.804Z,48.90
2018-08-11T22:54:54.215Z,49.00
2018-08-11T22:57:25.137Z,49.10
2018-08-11T22:59:55.780Z,49.30
2018-08-11T23:02:26.761Z,49.30
2018-08-11T23:04:57.564Z,49.40
2018-08-11T23:07:28.784Z,49.30
2018-08-11T23:09:59.549Z,49.40
2018-08-11T23:12:30.139Z,49.20
2018-08-11T23:15:01.039Z,49.50
2018-08-11T23:17:31.673Z,49.60
2018-08-11T23:20:02.083Z,49.70
2018-08-11T23:22:32.743Z,49.60
2018-08-11T23:25:03.840Z,49.20
2018-08-11T23:27:34.853Z,49.40
2018-08-11T23:30:09.815Z,49.30
2018-08-11T23:32:41.491Z,49.20
2018-08-11T23:35:12.396Z,49.50
2018-08-11T23:37:43.517Z,49.80
2018-08-11T23:40:13.915Z,50.00
2018-08-11T23:42:44.567Z,49.90
2018-08-11T23:45:16.451Z,50.00
2018-08-11T23:47:47.395Z,50.10
2018-08-11T23:50:18.363Z,50.50
2018-08-11T23:52:49.173Z,50.20
2018-08-11T23:55:20.095Z,50.60
2018-08-11T23:57:50.719Z,50.70
